Time;durP1;ratioP1;P1;durP2;ratioP2;P2;SDS_P1;SDS_P2;PMS_P1;PMS_P2;Temp;Humidity;BMP_temperature;BMP_pressure;BME280_temperature;BME280_humidity;BME280_pressure;Samples;Min_cycle;Max_cycle;Signal;HPM_P1;HPM_P2
2023/01/20 00:01:38;;;;;;;10.38;6.50;;;-0.70;99.90;;;;;;5092344;28;20044;-76
2023/01/20 00:04:05;;;;;;;11.27;6.38;;;-0.70;99.90;;;;;;5085415;28;20048;-78
2023/01/20 00:06:30;;;;;;;9.52;6.05;;;-0.20;99.90;;;;;;5084275;28;20036;-78
2023/01/20 00:09:01;;;;;;;9.38;6.50;;;-0.70;99.90;;;;;;5097626;28;20044;-79
2023/01/20 00:11:28;;;;;;;11.07;6.13;;;-0.60;99.90;;;;;;5098792;28;20048;-79
2023/01/20 00:13:58;;;;;;;11.10;7.45;;;-0.60;99.90;;;;;;5092934;28;20051;-77
2023/01/20 00:16:25;;;;;;;10.85;7.07;;;-0.60;99.90;;;;;;5079454;28;20052;-78
2023/01/20 00:18:51;;;;;;;11.48;6.05;;;-0.60;99.90;;;;;;5059655;28;20052;-79
2023/01/20 00:21:17;;;;;;;9.80;5.93;;;-0.60;99.90;;;;;;5078149;28;20048;-79
2023/01/20 00:23:44;;;;;;;10.75;5.95;;;-0.70;99.90;;;;;;5078623;28;20084;-77
2023/01/20 00:26:18;;;;;;;11.23;7.38;;;-0.70;99.90;;;;;;5077074;28;20431;-80
2023/01/20 00:28:44;;;;;;;9.63;5.68;;;-0.60;99.90;;;;;;5077547;28;20046;-79
2023/01/20 00:31:22;;;;;;;7.85;5.28;;;-0.60;99.90;;;;;;5077853;28;20056;-79
2023/01/20 00:33:50;;;;;;;9.02;5.72;;;-0.50;99.90;;;;;;5061639;28;20096;-77
2023/01/20 00:36:17;;;;;;;8.68;5.68;;;0.60;99.90;;;;;;5076829;28;20068;-78
2023/01/20 00:38:43;;;;;;;7.65;5.25;;;-0.40;99.90;;;;;;5077522;28;20067;-79
2023/01/20 00:41:09;;;;;;;7.40;4.97;;;-0.30;99.90;;;;;;5077138;28;20044;-77
2023/01/20 00:43:35;;;;;;;8.77;6.00;;;-0.30;99.90;;;;;;5078008;28;20082;-78
2023/01/20 00:46:01;;;;;;;9.70;5.75;;;-0.20;99.90;;;;;;5077477;28;20056;-81
2023/01/20 00:48:27;;;;;;;9.38;5.90;;;-0.10;99.90;;;;;;5075834;28;20123;-78
2023/01/20 00:50:53;;;;;;;9.02;5.20;;;-0.10;99.90;;;;;;5079329;28;20080;-80
2023/01/20 00:53:19;;;;;;;8.35;5.47;;;0.00;99.90;;;;;;5076328;28;20420;-77
2023/01/20 00:55:44;;;;;;;8.57;5.80;;;0.00;99.90;;;;;;5077242;28;20059;-79
2023/01/20 00:58:10;;;;;;;9.18;5.15;;;0.00;99.90;;;;;;5078376;28;20082;-77
2023/01/20 01:00:36;;;;;;;7.97;5.40;;;0.10;99.90;;;;;;5076145;28;20054;-79
2023/01/20 01:03:02;;;;;;;10.27;5.13;;;0.00;99.90;;;;;;5077451;28;20417;-80
2023/01/20 01:05:27;;;;;;;8.65;6.57;;;0.00;99.90;;;;;;5076064;28;20049;-81
2023/01/20 01:07:53;;;;;;;9.82;5.80;;;0.10;99.90;;;;;;5077553;28;20032;-79
2023/01/20 01:10:19;;;;;;;10.50;5.53;;;0.10;99.90;;;;;;5075694;28;20059;-77
2023/01/20 01:12:44;;;;;;;8.63;5.75;;;0.10;99.90;;;;;;5078977;28;20052;-82
2023/01/20 01:15:11;;;;;;;8.88;6.45;;;0.50;99.90;;;;;;5076399;28;20508;-78
2023/01/20 01:17:36;;;;;;;8.27;5.35;;;0.10;99.90;;;;;;5059330;28;20176;-79
2023/01/20 01:20:03;;;;;;;8.35;5.63;;;0.10;99.90;;;;;;5077135;28;20084;-80
2023/01/20 01:22:31;;;;;;;9.00;5.38;;;0.10;99.90;;;;;;5075717;28;20133;-79
2023/01/20 01:24:57;;;;;;;9.50;6.28;;;0.20;99.90;;;;;;5077428;28;20052;-80
2023/01/20 01:27:23;;;;;;;8.82;6.22;;;0.20;99.90;;;;;;5076819;28;20074;-82
2023/01/20 01:29:48;;;;;;;9.00;5.97;;;0.20;99.90;;;;;;5077123;28;20049;-80
2023/01/20 01:32:14;;;;;;;10.35;6.25;;;0.20;99.90;;;;;;5059903;28;20063;-81
2023/01/20 01:34:40;;;;;;;9.93;6.75;;;0.20;99.90;;;;;;5076249;28;20834;-82
2023/01/20 01:37:05;;;;;;;10.90;5.95;;;0.30;99.90;;;;;;5076839;28;20602;-82
2023/01/20 01:39:31;;;;;;;10.18;5.68;;;0.30;99.90;;;;;;5075617;28;20045;-86
2023/01/20 01:41:57;;;;;;;9.65;6.32;;;0.30;99.90;;;;;;5060515;28;20040;-82
2023/01/20 01:44:26;;;;;;;10.20;6.60;;;0.30;99.90;;;;;;5075331;28;20140;-84
2023/01/20 01:46:51;;;;;;;11.88;6.82;;;0.30;99.90;;;;;;5076783;28;20056;-83
2023/01/20 01:49:25;;;;;;;11.30;7.13;;;0.20;99.90;;;;;;5077190;28;20136;-80
2023/01/20 01:52:07;;;;;;;9.25;5.93;;;0.30;99.90;;;;;;5076186;28;20048;-80
2023/01/20 01:54:37;;;;;;;12.10;6.60;;;0.20;99.90;;;;;;5078185;28;20100;-81
2023/01/20 01:57:05;;;;;;;9.95;6.55;;;0.50;99.90;;;;;;5075054;28;20056;-85
2023/01/20 01:59:31;;;;;;;10.82;7.70;;;0.20;99.90;;;;;;5076790;28;20040;-81
2023/01/20 02:01:56;;;;;;;10.02;6.45;;;0.20;99.90;;;;;;5059173;28;20121;-79
2023/01/20 02:04:25;;;;;;;11.32;7.70;;;0.80;99.90;;;;;;5076515;28;20045;-85
2023/01/20 02:06:58;;;;;;;12.30;7.10;;;0.20;99.90;;;;;;5059968;28;20113;-80
2023/01/20 02:09:26;;;;;;;10.70;7.15;;;0.20;99.90;;;;;;5075563;28;20041;-82
2023/01/20 02:11:54;;;;;;;10.07;6.45;;;0.20;99.90;;;;;;5076925;28;20044;-81
2023/01/20 02:14:32;;;;;;;9.90;7.13;;;0.20;99.90;;;;;;5075183;28;20040;-81
2023/01/20 02:17:19;;;;;;;12.75;6.88;;;0.20;99.90;;;;;;5059769;28;20112;-79
2023/01/20 02:20:17;;;;;;;9.75;6.30;;;0.20;99.90;;;;;;5060109;28;20079;-81
2023/01/20 02:23:02;;;;;;;10.93;6.70;;;0.10;99.90;;;;;;5078718;28;20057;-82
2023/01/20 02:25:27;;;;;;;8.45;5.90;;;0.10;99.90;;;;;;5080201;28;20056;-81
2023/01/20 02:28:05;;;;;;;8.55;5.78;;;0.00;99.90;;;;;;5062712;28;20117;-79
2023/01/20 02:30:44;;;;;;;7.72;5.15;;;0.00;99.90;;;;;;5079182;28;20416;-78
2023/01/20 02:33:21;;;;;;;9.57;6.00;;;0.00;99.90;;;;;;5081512;28;20043;-76
2023/01/20 02:36:05;;;;;;;9.82;5.50;;;-0.10;99.90;;;;;;5078187;28;20119;-78
2023/01/20 02:38:50;;;;;;;8.38;5.25;;;0.40;99.90;;;;;;5079890;28;20040;-83
2023/01/20 02:41:15;;;;;;;7.68;4.88;;;-0.10;99.90;;;;;;5079788;28;20041;-81
2023/01/20 02:43:41;;;;;;;9.45;5.68;;;-0.10;99.90;;;;;;5078496;28;20156;-84
2023/01/20 02:46:30;;;;;;;9.60;5.68;;;-0.10;99.90;;;;;;5080093;28;20041;-83
2023/01/20 02:49:07;;;;;;;9.27;6.65;;;-0.10;99.90;;;;;;5078598;28;20071;-78
2023/01/20 02:51:39;;;;;;;;;;;-0.10;99.90;;;;;;5081018;28;20149;-80
2023/01/20 02:54:09;;;;;;;9.80;5.03;;;0.70;99.90;;;;;;5079382;28;19920;-81
2023/01/20 02:56:35;;;;;;;10.15;5.75;;;-0.10;99.90;;;;;;5078284;28;20048;-78
2023/01/20 02:59:07;;;;;;;10.00;5.63;;;-0.10;99.90;;;;;;5079881;28;20049;-78
2023/01/20 03:01:51;;;;;;;12.18;6.30;;;-0.10;99.90;;;;;;5078196;28;20040;-80
2023/01/20 03:04:22;;;;;;;11.13;5.13;;;-0.10;99.90;;;;;;5079336;28;20052;-79
2023/01/20 03:06:51;;;;;;;10.38;6.07;;;-0.10;99.90;;;;;;5080456;28;20052;-78
2023/01/20 03:09:20;;;;;;;10.00;7.18;;;-0.10;99.90;;;;;;5078164;28;20045;-79
2023/01/20 03:11:53;;;;;;;10.10;6.97;;;-0.10;99.90;;;;;;5079426;28;20041;-79
2023/01/20 03:14:19;;;;;;;8.20;5.10;;;-0.10;99.90;;;;;;5077663;28;20047;-78
2023/01/20 03:16:49;;;;;;;9.80;6.10;;;-0.10;99.90;;;;;;5079047;28;20052;-78
2023/01/20 03:19:16;;;;;;;9.65;5.63;;;0.10;99.90;;;;;;5078156;28;20033;-79
2023/01/20 03:21:42;;;;;;;11.60;7.35;;;0.10;99.90;;;;;;5078547;28;20116;-81
2023/01/20 03:24:08;;;;;;;10.38;6.53;;;-0.10;99.90;;;;;;5079089;28;20048;-79
2023/01/20 03:26:34;;;;;;;12.55;7.28;;;0.60;99.90;;;;;;5079219;28;20131;-79
2023/01/20 03:29:08;;;;;;;10.35;5.85;;;0.20;99.90;;;;;;5079158;28;20511;-79
2023/01/20 03:31:41;;;;;;;11.57;6.97;;;-0.10;99.90;;;;;;5076915;28;20079;-80
2023/01/20 03:34:14;;;;;;;9.85;6.90;;;-0.10;99.90;;;;;;5078924;28;20188;-81
2023/01/20 03:36:42;;;;;;;11.25;6.38;;;-0.10;99.90;;;;;;5078318;28;20052;-79
2023/01/20 03:39:08;;;;;;;10.25;6.43;;;-0.10;99.90;;;;;;5061499;28;20107;-79
2023/01/20 03:41:36;;;;;;;12.07;8.10;;;-0.10;99.90;;;;;;5078791;28;20045;-79
2023/01/20 03:44:15;;;;;;;11.60;6.95;;;-0.10;99.90;;;;;;5077260;28;20048;-78
2023/01/20 03:46:49;;;;;;;11.13;7.22;;;-0.10;99.90;;;;;;5078421;28;20066;-81
2023/01/20 03:49:33;;;;;;;9.32;6.22;;;-0.20;99.90;;;;;;5077803;28;20049;-82
2023/01/20 03:52:12;;;;;;;10.27;6.45;;;-0.20;99.90;;;;;;5077620;28;20127;-79
2023/01/20 03:54:46;;;;;;;10.05;6.35;;;-0.20;99.90;;;;;;5080449;28;20052;-78
2023/01/20 03:57:17;;;;;;;8.45;5.63;;;-0.20;99.90;;;;;;5076517;28;20051;-79
2023/01/20 03:59:46;;;;;;;10.57;6.53;;;-0.10;99.90;;;;;;5061787;28;20048;-79
2023/01/20 04:02:11;;;;;;;10.57;6.32;;;-0.20;99.90;;;;;;5078948;28;20047;-81
2023/01/20 04:04:39;;;;;;;10.30;6.85;;;-0.20;99.90;;;;;;5077821;28;20048;-80
2023/01/20 04:07:09;;;;;;;12.20;6.40;;;-0.20;99.90;;;;;;5078358;28;20045;-80
2023/01/20 04:09:41;;;;;;;11.93;7.32;;;-0.10;99.90;;;;;;5076744;28;20049;-78
2023/01/20 04:12:07;;;;;;;9.68;6.60;;;-0.20;99.90;;;;;;5078429;28;20101;-79
2023/01/20 04:14:36;;;;;;;9.40;5.68;;;-0.20;99.90;;;;;;5059319;28;20048;-80
2023/01/20 04:17:03;;;;;;;11.65;7.03;;;-0.10;99.90;;;;;;5077840;28;20144;-82
2023/01/20 04:19:30;;;;;;;11.63;6.63;;;-0.10;99.90;;;;;;5079556;28;20123;-78
2023/01/20 04:22:10;;;;;;;11.38;6.47;;;-0.20;99.90;;;;;;5081778;28;20041;-79
2023/01/20 04:24:41;;;;;;;11.32;6.95;;;-0.20;99.90;;;;;;5082299;28;20500;-78
2023/01/20 04:27:07;;;;;;;10.45;6.90;;;-0.10;99.90;;;;;;5059943;28;20072;-84
2023/01/20 04:29:33;;;;;;;10.43;6.13;;;-0.20;99.90;;;;;;5078413;28;20052;-81
2023/01/20 04:32:02;;;;;;;10.55;6.50;;;-0.10;99.90;;;;;;5076814;28;20117;-78
2023/01/20 04:34:28;;;;;;;11.23;5.63;;;-0.10;99.90;;;;;;5077154;28;20056;-79
2023/01/20 04:36:54;;;;;;;12.13;5.85;;;0.00;99.90;;;;;;5077241;28;20546;-77
2023/01/20 04:39:20;;;;;;;9.73;5.05;;;-0.30;99.90;;;;;;5077773;28;20032;-81
2023/01/20 04:41:47;;;;;;;10.02;5.93;;;-0.20;99.90;;;;;;5078099;28;20056;-79
2023/01/20 04:44:12;;;;;;;10.65;5.72;;;-0.20;99.90;;;;;;5075164;28;20056;-82
2023/01/20 04:46:38;;;;;;;10.68;6.70;;;0.10;99.90;;;;;;5060729;28;20037;-77
2023/01/20 04:49:04;;;;;;;10.43;5.85;;;-0.10;99.90;;;;;;5076221;28;20059;-79
2023/01/20 04:51:31;;;;;;;10.13;6.00;;;-0.10;99.90;;;;;;5060632;28;20127;-79
2023/01/20 04:53:58;;;;;;;9.52;5.80;;;-0.10;99.90;;;;;;5077082;28;20075;-79
2023/01/20 04:56:24;;;;;;;9.70;6.13;;;-0.10;99.90;;;;;;5076315;28;20044;-78
2023/01/20 04:58:50;;;;;;;10.82;6.88;;;-0.10;99.90;;;;;;5077707;28;20048;-79
2023/01/20 05:01:16;;;;;;;10.02;5.78;;;0.00;99.90;;;;;;5077074;28;20079;-78
2023/01/20 05:03:41;;;;;;;11.38;6.10;;;-0.10;99.90;;;;;;5077858;28;20052;-81
2023/01/20 05:06:09;;;;;;;11.45;5.70;;;-0.10;99.90;;;;;;5059196;28;20516;-78
2023/01/20 05:08:35;;;;;;;9.70;6.05;;;0.10;99.90;;;;;;5076790;28;20044;-78
2023/01/20 05:11:01;;;;;;;11.00;5.78;;;-0.10;99.90;;;;;;5076970;28;20046;-80
2023/01/20 05:13:27;;;;;;;9.55;5.55;;;-0.10;99.90;;;;;;5043018;28;20345;-78
2023/01/20 05:15:52;;;;;;;9.68;5.90;;;-0.10;99.90;;;;;;5077532;28;20041;-77
2023/01/20 05:18:18;;;;;;;10.88;6.22;;;-0.10;99.90;;;;;;5075445;28;20078;-80
2023/01/20 05:20:48;;;;;;;10.15;6.13;;;0.00;99.90;;;;;;5077736;28;20040;-78
2023/01/20 05:23:14;;;;;;;10.27;5.82;;;0.00;99.90;;;;;;5077580;28;20390;-80
2023/01/20 05:25:40;;;;;;;9.80;7.20;;;0.00;99.90;;;;;;5060576;28;20044;-80
2023/01/20 05:28:06;;;;;;;11.50;5.95;;;0.00;99.90;;;;;;5076590;28;20067;-78
2023/01/20 05:30:32;;;;;;;8.93;5.28;;;0.00;99.90;;;;;;5059710;28;20102;-80
2023/01/20 05:32:58;;;;;;;9.50;6.55;;;0.00;99.90;;;;;;5058293;28;20044;-79
2023/01/20 05:35:24;;;;;;;10.40;6.38;;;0.60;99.90;;;;;;5076514;28;20639;-80
2023/01/20 05:37:53;;;;;;;9.77;5.88;;;0.00;99.90;;;;;;5077551;28;20044;-80
2023/01/20 05:40:19;;;;;;;10.95;6.63;;;0.00;99.90;;;;;;5075346;28;20044;-78
2023/01/20 05:42:45;;;;;;;12.73;6.72;;;0.20;99.90;;;;;;5076482;28;20052;-79
2023/01/20 05:45:11;;;;;;;11.45;6.80;;;0.00;99.90;;;;;;5076350;28;20056;-78
2023/01/20 05:47:36;;;;;;;11.27;6.20;;;0.10;99.90;;;;;;5075827;28;20044;-77
2023/01/20 05:50:03;;;;;;;13.18;6.97;;;0.00;99.90;;;;;;5076741;28;20057;-81
2023/01/20 05:52:29;;;;;;;14.75;8.00;;;0.00;99.90;;;;;;5075644;28;20048;-80
2023/01/20 05:54:55;;;;;;;15.55;7.05;;;0.10;99.90;;;;;;5061345;28;20427;-77
2023/01/20 05:57:24;;;;;;;10.15;6.03;;;0.40;99.90;;;;;;5079766;28;20052;-78
2023/01/20 05:59:51;;;;;;;10.45;6.40;;;0.00;99.90;;;;;;5080443;28;20053;-80
2023/01/20 06:02:18;;;;;;;13.55;6.88;;;0.10;99.90;;;;;;5063651;28;20033;-77
2023/01/20 06:04:47;;;;;;;15.70;6.95;;;0.10;99.90;;;;;;5080988;28;20049;-76
2023/01/20 06:07:14;;;;;;;13.57;7.05;;;0.40;99.90;;;;;;5064127;28;20117;-80
2023/01/20 06:09:40;;;;;;;13.38;7.50;;;0.10;99.90;;;;;;5062381;28;20056;-78
2023/01/20 06:12:07;;;;;;;15.95;9.35;;;0.20;99.90;;;;;;5080329;28;20056;-78
2023/01/20 06:14:32;;;;;;;11.43;7.13;;;0.20;99.90;;;;;;5078577;28;20044;-79
2023/01/20 06:16:58;;;;;;;12.98;7.45;;;0.60;99.90;;;;;;5079823;28;20086;-78
2023/01/20 06:19:24;;;;;;;13.32;8.48;;;0.20;99.90;;;;;;5079470;28;20048;-79
2023/01/20 06:21:49;;;;;;;11.80;6.97;;;0.60;99.90;;;;;;5079663;28;20040;-78
2023/01/20 06:24:15;;;;;;;15.00;8.68;;;0.20;99.90;;;;;;5080099;28;20053;-79
2023/01/20 06:26:41;;;;;;;14.25;8.93;;;0.20;99.90;;;;;;5078952;28;20032;-80
2023/01/20 06:29:07;;;;;;;12.70;8.45;;;0.20;99.90;;;;;;5080574;28;20048;-79
2023/01/20 06:31:32;;;;;;;16.08;8.75;;;0.20;99.90;;;;;;5078911;28;20052;-80
2023/01/20 06:33:58;;;;;;;17.55;10.23;;;0.20;99.90;;;;;;5080210;28;20099;-78
2023/01/20 06:36:24;;;;;;;14.75;8.13;;;0.20;99.90;;;;;;5079108;28;20053;-79
2023/01/20 06:38:50;;;;;;;20.30;12.10;;;0.20;99.90;;;;;;5062622;28;20056;-82
2023/01/20 06:41:18;;;;;;;21.23;10.55;;;0.20;99.90;;;;;;5081223;28;20056;-79
2023/01/20 06:43:44;;;;;;;18.50;10.00;;;0.20;99.90;;;;;;5078187;28;20048;-78
2023/01/20 06:46:12;;;;;;;21.00;11.98;;;0.40;99.90;;;;;;5079987;28;20048;-80
2023/01/20 06:48:39;;;;;;;19.38;10.25;;;0.20;99.90;;;;;;5078471;28;20056;-78
2023/01/20 06:51:13;;;;;;;18.27;9.32;;;0.50;99.90;;;;;;5080054;28;20431;-81
2023/01/20 06:53:39;;;;;;;17.23;9.73;;;0.20;99.90;;;;;;5062310;28;20037;-79
2023/01/20 06:56:06;;;;;;;16.60;9.48;;;0.20;99.90;;;;;;5079385;28;20036;-79
2023/01/20 06:58:33;;;;;;;18.42;10.15;;;0.20;99.90;;;;;;5081043;28;20047;-78
2023/01/20 07:01:09;;;;;;;18.15;9.75;;;0.30;99.90;;;;;;5078557;28;20048;-79
2023/01/20 07:03:35;;;;;;;17.55;9.75;;;0.20;99.90;;;;;;5080085;28;20044;-77
2023/01/20 07:06:04;;;;;;;19.13;11.32;;;0.20;99.90;;;;;;5077575;28;20056;-79
2023/01/20 07:08:30;;;;;;;16.42;9.07;;;0.20;99.90;;;;;;5079217;28;20048;-78
2023/01/20 07:10:56;;;;;;;17.52;9.40;;;0.30;99.90;;;;;;5079178;28;20041;-78
2023/01/20 07:13:22;;;;;;;19.65;10.48;;;0.30;99.90;;;;;;5077985;28;20540;-78
2023/01/20 07:15:48;;;;;;;20.15;9.07;;;0.30;99.90;;;;;;5080933;28;20041;-79
2023/01/20 07:18:13;;;;;;;17.70;9.98;;;0.30;99.90;;;;;;5077403;28;20056;-79
2023/01/20 07:20:39;;;;;;;17.05;9.70;;;0.50;99.90;;;;;;5079297;28;20040;-78
2023/01/20 07:23:06;;;;;;;20.33;12.20;;;0.30;99.90;;;;;;5077960;28;20040;-81
2023/01/20 07:25:32;;;;;;;18.92;10.18;;;0.30;99.90;;;;;;5079286;28;20044;-79
2023/01/20 07:27:57;;;;;;;17.23;9.45;;;0.60;99.90;;;;;;5078993;28;20063;-80
2023/01/20 07:30:24;;;;;;;19.48;10.50;;;0.40;99.90;;;;;;5078393;28;20040;-79
2023/01/20 07:32:50;;;;;;;16.77;9.13;;;0.40;99.90;;;;;;5062179;28;20076;-79
2023/01/20 07:35:16;;;;;;;24.60;11.10;;;0.40;99.90;;;;;;5060649;28;20060;-77
2023/01/20 07:37:42;;;;;;;19.27;9.77;;;0.40;99.90;;;;;;5045745;28;20051;-80
2023/01/20 07:40:08;;;;;;;18.15;9.52;;;0.40;99.90;;;;;;5077235;28;20117;-79
2023/01/20 07:42:37;;;;;;;18.83;10.32;;;0.40;99.90;;;;;;5079337;28;20045;-78
2023/01/20 07:45:03;;;;;;;19.58;10.80;;;0.70;99.90;;;;;;5081956;28;20053;-77
2023/01/20 07:47:28;;;;;;;20.30;10.25;;;0.50;99.90;;;;;;5081123;28;20109;-79
2023/01/20 07:49:54;;;;;;;18.83;10.50;;;0.50;99.90;;;;;;5061585;28;20048;-78
2023/01/20 07:52:20;;;;;;;19.60;9.70;;;0.50;99.90;;;;;;5077306;28;20041;-77
2023/01/20 07:54:45;;;;;;;19.10;10.05;;;0.60;99.90;;;;;;5078847;28;20142;-79
2023/01/20 07:57:11;;;;;;;18.52;9.32;;;0.60;99.90;;;;;;5075371;28;20052;-78
2023/01/20 07:59:37;;;;;;;18.60;10.02;;;0.60;99.90;;;;;;5078372;28;20048;-77
2023/01/20 08:02:03;;;;;;;19.38;9.57;;;0.60;99.90;;;;;;5077504;28;20051;-76
2023/01/20 08:04:28;;;;;;;19.75;10.27;;;0.60;99.90;;;;;;5077629;28;20083;-78
2023/01/20 08:06:54;;;;;;;21.00;10.30;;;0.60;99.90;;;;;;5078237;28;20450;-79
2023/01/20 08:09:20;;;;;;;20.67;10.48;;;0.60;99.90;;;;;;5077265;28;20052;-81
2023/01/20 08:11:45;;;;;;;16.65;9.07;;;0.60;99.90;;;;;;5044911;28;20064;-78
2023/01/20 08:14:11;;;;;;;24.23;12.18;;;0.60;99.90;;;;;;5077694;28;20103;-78
2023/01/20 08:16:37;;;;;;;19.95;10.18;;;0.60;99.90;;;;;;5077974;28;20049;-78
2023/01/20 08:19:03;;;;;;;20.83;10.00;;;0.60;99.90;;;;;;5076638;28;20594;-78
2023/01/20 08:21:30;;;;;;;17.80;9.57;;;0.60;99.90;;;;;;5068959;28;20058;-79
2023/01/20 08:23:57;;;;;;;17.98;9.05;;;0.90;99.90;;;;;;5078226;28;20131;-79
2023/01/20 08:26:24;;;;;;;17.33;9.45;;;0.50;99.90;;;;;;5079518;28;20048;-79
2023/01/20 08:28:50;;;;;;;17.15;8.68;;;0.90;99.90;;;;;;5094273;28;20083;-80
2023/01/20 08:31:19;;;;;;;17.75;8.85;;;0.60;99.90;;;;;;5077782;28;20535;-78
2023/01/20 08:33:45;;;;;;;21.55;11.70;;;0.90;99.90;;;;;;5081158;28;20120;-80
2023/01/20 08:36:17;;;;;;;19.45;10.35;;;0.50;99.90;;;;;;5077415;28;20683;-80
2023/01/20 08:38:43;;;;;;;16.67;10.32;;;0.60;99.90;;;;;;5078837;28;20084;-78
2023/01/20 08:41:12;;;;;;;15.98;8.68;;;0.60;99.90;;;;;;5060554;28;20070;-77
2023/01/20 08:43:38;;;;;;;15.75;8.95;;;0.80;99.90;;;;;;5075141;28;20504;-77
2023/01/20 08:46:07;;;;;;;17.33;9.80;;;0.50;99.90;;;;;;5077193;28;20049;-79
2023/01/20 08:48:34;;;;;;;20.08;10.93;;;0.60;99.90;;;;;;5075133;28;20052;-77
2023/01/20 08:51:03;;;;;;;17.77;10.32;;;0.70;99.90;;;;;;5076194;28;20048;-78
2023/01/20 08:53:29;;;;;;;20.55;10.00;;;0.60;99.90;;;;;;5109011;28;20428;-78
2023/01/20 08:56:00;;;;;;;17.55;9.90;;;0.60;99.90;;;;;;5059901;28;20052;-77
2023/01/20 08:58:27;;;;;;;17.92;10.18;;;0.60;99.90;;;;;;5073420;28;20056;-79
2023/01/20 09:00:53;;;;;;;15.82;8.35;;;0.60;99.90;;;;;;5066010;28;20743;-79
2023/01/20 09:03:20;;;;;;;19.17;9.88;;;0.60;99.90;;;;;;5081232;28;20622;-79
2023/01/20 09:05:45;;;;;;;19.73;10.45;;;0.70;99.90;;;;;;5077007;28;20067;-79
2023/01/20 09:08:11;;;;;;;19.15;9.82;;;0.60;99.90;;;;;;5074252;28;20040;-79
2023/01/20 09:10:37;;;;;;;22.77;12.18;;;0.60;99.90;;;;;;5069283;28;20056;-79
2023/01/20 09:13:03;;;;;;;20.50;10.57;;;0.80;99.90;;;;;;5041921;28;20044;-79
2023/01/20 09:15:29;;;;;;;18.35;9.63;;;0.70;99.90;;;;;;5070661;28;20049;-79
2023/01/20 09:17:54;;;;;;;21.10;10.70;;;0.60;99.90;;;;;;5083020;28;20142;-76
2023/01/20 09:20:20;;;;;;;18.70;10.25;;;0.60;99.90;;;;;;5076638;28;20052;-78
2023/01/20 09:22:46;;;;;;;20.63;10.00;;;0.70;99.90;;;;;;5084174;28;20037;-78
2023/01/20 09:25:11;;;;;;;19.88;11.30;;;0.60;99.90;;;;;;5086866;28;20063;-78
2023/01/20 09:27:37;;;;;;;20.38;10.52;;;0.60;99.90;;;;;;5076999;28;20049;-78
2023/01/20 09:30:04;;;;;;;17.83;10.00;;;0.60;99.90;;;;;;5080593;28;20475;-78
2023/01/20 09:32:31;;;;;;;18.92;9.32;;;0.70;99.90;;;;;;5080017;28;20082;-77
2023/01/20 09:34:57;;;;;;;20.90;10.13;;;0.70;99.90;;;;;;5099331;28;20053;-77
2023/01/20 09:43:55;;;;;;;21.85;9.98;;;0.60;99.90;;;;;;5083182;28;20049;-78
2023/01/20 09:47:18;;;;;;;20.33;10.00;;;0.60;99.90;;;;;;5083076;28;20127;-78
2023/01/20 09:53:07;;;;;;;20.88;10.88;;;0.70;99.90;;;;;;5082792;28;20052;-76
2023/01/20 09:55:50;;;;;;;23.90;10.73;;;0.70;99.90;;;;;;5091827;28;20119;-78
2023/01/20 09:58:38;;;;;;;23.60;11.25;;;0.80;99.90;;;;;;5083354;28;20043;-77
2023/01/20 10:01:18;;;;;;;21.85;10.52;;;0.70;99.90;;;;;;5081693;28;20037;-78
2023/01/20 10:04:12;;;;;;;20.63;10.45;;;0.80;99.90;;;;;;5083680;28;20137;-77
2023/01/20 10:07:01;;;;;;;21.23;10.65;;;0.80;99.90;;;;;;5083116;28;20419;-77
2023/01/20 10:09:39;;;;;;;22.75;10.68;;;0.90;99.90;;;;;;5083365;28;20091;-77
2023/01/20 10:12:08;;;;;;;20.20;10.77;;;0.80;99.90;;;;;;5083531;28;20053;-77
2023/01/20 10:14:43;;;;;;;22.50;11.27;;;0.80;99.90;;;;;;5080874;28;20051;-77
2023/01/20 10:17:33;;;;;;;23.20;12.10;;;0.80;99.90;;;;;;5070040;28;20052;-78
2023/01/20 10:20:15;;;;;;;26.55;12.30;;;0.90;99.90;;;;;;5063335;28;20524;-77
2023/01/20 10:23:06;;;;;;;20.77;11.30;;;0.90;99.90;;;;;;5085119;28;20048;-78
2023/01/20 10:25:48;;;;;;;22.13;11.65;;;0.90;99.90;;;;;;5069429;28;20628;-78
2023/01/20 10:28:25;;;;;;;23.58;10.85;;;1.00;99.90;;;;;;5087776;28;20593;-78
2023/01/20 10:30:51;;;;;;;22.95;11.15;;;1.10;99.90;;;;;;5069813;28;20094;-79
2023/01/20 10:33:24;;;;;;;21.17;11.18;;;1.10;99.90;;;;;;5094448;28;20056;-80
2023/01/20 10:35:53;;;;;;;21.30;10.70;;;1.10;99.90;;;;;;5068002;28;20075;-76
2023/01/20 10:38:42;;;;;;;20.83;9.93;;;1.10;99.90;;;;;;5078235;28;20075;-77
2023/01/20 10:41:27;;;;;;;23.10;10.90;;;1.10;99.90;;;;;;5064647;28;20044;-76
2023/01/20 10:43:54;;;;;;;21.92;10.02;;;1.10;99.90;;;;;;5070127;28;20056;-77
2023/01/20 10:47:02;;;;;;;22.50;11.85;;;1.10;99.90;;;;;;5080782;28;20515;-77
2023/01/20 10:49:35;;;;;;;;;;;1.10;99.90;;;;;;5090850;28;20048;-78
2023/01/20 10:52:30;;;;;;;22.70;10.70;;;1.10;99.90;;;;;;5081788;28;20430;-78
2023/01/20 10:55:14;;;;;;;20.48;11.00;;;1.20;99.90;;;;;;5058857;28;20056;-78
2023/01/20 10:57:40;;;;;;;24.50;11.45;;;1.20;99.90;;;;;;5076987;28;20056;-76
2023/01/20 11:00:32;;;;;;;19.10;10.32;;;1.20;99.90;;;;;;5080142;28;20060;-79
2023/01/20 11:03:01;;;;;;;20.60;10.77;;;1.20;99.90;;;;;;5079360;28;20131;-79
2023/01/20 11:05:39;;;;;;;19.98;9.65;;;1.20;99.90;;;;;;5077680;28;20496;-78
2023/01/20 11:08:21;;;;;;;23.42;10.32;;;1.20;99.90;;;;;;5078440;28;20080;-75
2023/01/20 11:10:51;;;;;;;22.30;10.95;;;1.20;99.90;;;;;;5078145;28;20139;-77
2023/01/20 11:13:17;;;;;;;22.85;10.98;;;1.30;99.90;;;;;;5078216;28;20046;-78
2023/01/20 11:15:49;;;;;;;20.33;9.85;;;1.20;99.90;;;;;;5079085;28;20076;-78
2023/01/20 11:18:15;;;;;;;20.95;11.55;;;1.30;99.90;;;;;;5076991;28;20048;-75
2023/01/20 11:20:51;;;;;;;18.40;9.82;;;1.30;99.90;;;;;;5079402;28;20116;-76
2023/01/20 11:23:41;;;;;;;21.75;10.57;;;1.40;99.90;;;;;;5076502;28;20492;-77
2023/01/20 11:26:31;;;;;;;17.83;8.57;;;1.30;99.90;;;;;;5052137;28;20049;-78
2023/01/20 11:28:57;;;;;;;19.40;10.45;;;1.30;99.90;;;;;;5089256;28;20049;-78
2023/01/20 11:31:53;;;;;;;18.08;8.57;;;1.40;99.90;;;;;;5046525;28;20085;-79
2023/01/20 11:34:31;;;;;;;18.38;9.63;;;1.40;99.90;;;;;;5048002;28;20528;-79
2023/01/20 11:37:09;;;;;;;19.60;9.57;;;1.70;99.90;;;;;;5073584;28;20057;-79
2023/01/20 11:39:41;;;;;;;21.10;10.32;;;1.30;99.90;;;;;;5071309;28;20109;-78
2023/01/20 11:42:16;;;;;;;18.92;10.00;;;1.40;99.90;;;;;;5055847;28;20119;-77
2023/01/20 11:45:00;;;;;;;19.38;8.60;;;1.30;99.90;;;;;;5073687;28;20116;-76
2023/01/20 11:47:35;;;;;;;17.13;8.95;;;1.30;99.90;;;;;;5052948;28;20049;-76
2023/01/20 11:50:03;;;;;;;18.80;9.57;;;1.30;99.90;;;;;;5054569;28;20052;-77
2023/01/20 11:52:38;;;;;;;18.33;9.30;;;1.30;99.90;;;;;;5069605;28;20559;-75
2023/01/20 11:55:22;;;;;;;17.45;8.73;;;1.30;99.90;;;;;;5076338;28;20076;-78
2023/01/20 11:58:02;;;;;;;18.23;9.52;;;1.30;99.90;;;;;;5075224;28;20179;-79
2023/01/20 12:00:41;;;;;;;16.63;8.98;;;1.40;99.90;;;;;;5072665;28;20057;-78
2023/01/20 12:03:13;;;;;;;19.17;9.27;;;1.30;99.90;;;;;;5074951;28;20044;-76
2023/01/20 12:05:53;;;;;;;17.88;9.27;;;1.30;99.90;;;;;;5072762;28;20060;-79
2023/01/20 12:08:53;;;;;;;15.40;7.97;;;1.30;99.90;;;;;;5057839;28;20053;-77
2023/01/20 12:11:30;;;;;;;19.00;9.50;;;1.30;99.90;;;;;;5071699;28;20365;-79
2023/01/20 12:14:24;;;;;;;18.33;10.13;;;1.30;99.90;;;;;;5071526;28;20070;-80
2023/01/20 12:17:02;;;;;;;17.05;8.70;;;1.30;99.90;;;;;;5091331;28;20045;-79
2023/01/20 12:19:52;;;;;;;21.35;9.95;;;1.50;99.90;;;;;;5069219;28;20048;-79
2023/01/20 12:23:02;;;;;;;19.20;8.52;;;1.40;99.90;;;;;;5047991;28;20037;-78
2023/01/20 12:25:35;;;;;;;16.10;8.18;;;1.40;99.90;;;;;;4971858;28;20054;-77
2023/01/20 12:28:17;;;;;;;15.25;9.07;;;1.50;99.90;;;;;;4997699;28;20054;-77
2023/01/20 12:30:52;;;;;;;17.02;7.88;;;1.40;99.90;;;;;;4996574;28;20056;-76
2023/01/20 12:33:29;;;;;;;15.00;8.70;;;1.40;99.90;;;;;;5015757;28;20042;-78
2023/01/20 12:36:20;;;;;;;18.55;9.75;;;1.40;99.90;;;;;;5000230;28;20069;-79
2023/01/20 12:38:59;;;;;;;19.95;9.90;;;1.50;99.90;;;;;;5002168;28;20063;-78
2023/01/20 12:41:56;;;;;;;15.75;8.15;;;1.50;99.90;;;;;;4985514;28;20050;-78
2023/01/20 12:44:49;;;;;;;17.47;9.67;;;1.50;99.90;;;;;;4995690;28;20054;-79
2023/01/20 12:47:34;;;;;;;16.60;8.95;;;1.60;99.90;;;;;;4996083;28;20090;-79
2023/01/20 12:50:06;;;;;;;20.73;9.93;;;1.60;99.90;;;;;;5007504;28;20050;-79
2023/01/20 12:52:44;;;;;;;18.38;8.70;;;1.60;99.90;;;;;;5020639;28;20046;-79
2023/01/20 12:55:22;;;;;;;17.42;9.15;;;1.60;99.90;;;;;;5014698;28;20061;-80
2023/01/20 12:57:57;;;;;;;18.33;9.25;;;1.60;99.90;;;;;;4977371;28;20042;-79
2023/01/20 13:00:38;;;;;;;16.27;8.80;;;1.50;99.90;;;;;;3215275;28;10001525;-80
2023/01/20 13:03:22;;;;;;;17.88;9.30;;;1.50;99.90;;;;;;5013802;28;20060;-78
2023/01/20 13:06:08;;;;;;;15.80;9.07;;;1.50;99.90;;;;;;5011156;28;20080;-78
2023/01/20 13:09:04;;;;;;;20.10;9.50;;;1.50;99.90;;;;;;5012752;28;20054;-79
2023/01/20 13:12:08;;;;;;;16.67;9.00;;;1.50;99.90;;;;;;4996940;28;20050;-79
2023/01/20 13:14:40;;;;;;;16.67;9.90;;;1.50;99.90;;;;;;5016541;28;20065;-79
2023/01/20 13:17:24;;;;;;;18.85;10.35;;;1.60;99.90;;;;;;4998350;28;20126;-79